Madrid Aeropuerto

latitud = 40° 28' 00''N | longitud = 003° 33' 20''W
667 metros sobre el nivel del mar |

Fecha, hora, temperatura, viento dirección y velocidad, humedad y presión.

  • 23-04-2018 10:00:00 | 13.80°C | Norte |18.00 km/h | 76.00% | 951.30 hPa
  • 23-04-2018 09:00:00 | 12.90°C | Noroeste |9.00 km/h | 82.00% | 951.60 hPa
  • 23-04-2018 08:00:00 | 12.50°C | Nordeste |6.00 km/h | 85.00% | 951.40 hPa
  • 23-04-2018 07:00:00 | 12.70°C | Norte |8.00 km/h | 84.00% | 950.30 hPa
  • 23-04-2018 06:00:00 | 12.40°C | Noroeste |5.00 km/h | 88.00% | 950.80 hPa
  • 23-04-2018 05:00:00 | 12.90°C | Norte |6.00 km/h | 84.00% | 951.30 hPa
  • 23-04-2018 04:00:00 | 12.80°C | Noroeste |10.00 km/h | 85.00% | 950.90 hPa
  • 23-04-2018 03:00:00 | 13.10°C | Norte |8.00 km/h | 85.00% | 950.50 hPa
  • 23-04-2018 02:00:00 | 13.50°C | Oeste |4.00 km/h | 83.00% | 950.40 hPa
  • 23-04-2018 01:00:00 | 14.40°C | Norte |6.00 km/h | 80.00% | 949.80 hPa
  • 23-04-2018 00:00:00 | 15.50°C | Nordeste |5.00 km/h | 70.00% | 949.70 hPa
  • 22-04-2018 23:00:00 | 17.20°C | Sudeste |4.00 km/h | 61.00% | 949.20 hPa
  • 22-04-2018 22:00:00 | 18.80°C | Este |6.00 km/h | 55.00% | 948.70 hPa
  • 22-04-2018 21:00:00 | 20.60°C | Sudeste |8.00 km/h | 49.00% | 948.00 hPa
  • 22-04-2018 20:00:00 | 21.80°C | Sudeste |13.00 km/h | 44.00% | 947.50 hPa
  • 22-04-2018 19:00:00 | 23.40°C | Este |12.00 km/h | 41.00% | 946.90 hPa
  • 22-04-2018 18:00:00 | 23.50°C | Este |12.00 km/h | 38.00% | 946.60 hPa
  • 22-04-2018 17:00:00 | 22.80°C | Sudeste |3.00 km/h | 40.00% | 947.30 hPa
  • 22-04-2018 16:00:00 | 22.80°C | Sudoeste |7.00 km/h | 40.00% | 948.20 hPa
  • 22-04-2018 15:00:00 | 21.40°C | Sudoeste |12.00 km/h | 43.00% | 949.00 hPa
  • 22-04-2018 14:00:00 | 22.30°C | Nordeste |11.00 km/h | 41.00% | 948.10 hPa
  • 22-04-2018 13:00:00 | 20.90°C | Nordeste |9.00 km/h | 40.00% | 948.90 hPa
  • 22-04-2018 12:00:00 | 19.10°C | Norte |13.00 km/h | 52.00% | 949.30 hPa
  • 22-04-2018 11:00:00 | 17.30°C | Norte |9.00 km/h | 53.00% | 949.70 hPa
    • Datos gráficos mensuales en Madrid: